sensor_id;sensor_type;location;lat;lon;timestamp;P1;durP1;ratioP1;P2;durP2;ratioP2
12425;SDS011;6277;49.824;9.562;2023-11-18T00:02:15;7.07;;;5.00;;
12425;SDS011;6277;49.824;9.562;2023-11-18T00:04:41;6.80;;;4.70;;
12425;SDS011;6277;49.824;9.562;2023-11-18T00:07:07;6.60;;;4.80;;
12425;SDS011;6277;49.824;9.562;2023-11-18T00:09:32;6.45;;;4.60;;
12425;SDS011;6277;49.824;9.562;2023-11-18T00:11:58;8.10;;;4.57;;
12425;SDS011;6277;49.824;9.562;2023-11-18T00:14:23;7.00;;;4.75;;
12425;SDS011;6277;49.824;9.562;2023-11-18T00:16:49;8.50;;;4.82;;
12425;SDS011;6277;49.824;9.562;2023-11-18T00:19:14;9.50;;;4.95;;
12425;SDS011;6277;49.824;9.562;2023-11-18T00:21:40;33.53;;;5.32;;
12425;SDS011;6277;49.824;9.562;2023-11-18T00:24:06;5.15;;;4.18;;
12425;SDS011;6277;49.824;9.562;2023-11-18T00:26:33;5.65;;;3.92;;
12425;SDS011;6277;49.824;9.562;2023-11-18T00:28:59;9.52;;;3.70;;
12425;SDS011;6277;49.824;9.562;2023-11-18T00:31:25;4.70;;;3.80;;
12425;SDS011;6277;49.824;9.562;2023-11-18T00:33:51;9.70;;;3.92;;
12425;SDS011;6277;49.824;9.562;2023-11-18T00:36:17;12.10;;;3.30;;
12425;SDS011;6277;49.824;9.562;2023-11-18T00:38:43;5.68;;;3.55;;
12425;SDS011;6277;49.824;9.562;2023-11-18T00:41:08;4.63;;;3.40;;
12425;SDS011;6277;49.824;9.562;2023-11-18T00:43:34;4.35;;;3.20;;
12425;SDS011;6277;49.824;9.562;2023-11-18T00:45:59;4.80;;;3.35;;
12425;SDS011;6277;49.824;9.562;2023-11-18T00:48:26;4.60;;;3.25;;
12425;SDS011;6277;49.824;9.562;2023-11-18T00:50:52;4.00;;;3.05;;
12425;SDS011;6277;49.824;9.562;2023-11-18T00:53:17;6.10;;;3.10;;
12425;SDS011;6277;49.824;9.562;2023-11-18T00:55:43;4.65;;;3.13;;
12425;SDS011;6277;49.824;9.562;2023-11-18T00:58:10;3.80;;;3.00;;
12425;SDS011;6277;49.824;9.562;2023-11-18T01:00:35;5.45;;;3.13;;
12425;SDS011;6277;49.824;9.562;2023-11-18T01:03:01;4.97;;;3.05;;
12425;SDS011;6277;49.824;9.562;2023-11-18T01:05:28;4.80;;;3.70;;
12425;SDS011;6277;49.824;9.562;2023-11-18T01:07:56;6.45;;;3.13;;
12425;SDS011;6277;49.824;9.562;2023-11-18T01:10:22;8.93;;;3.22;;
12425;SDS011;6277;49.824;9.562;2023-11-18T01:12:48;20.00;;;3.72;;
12425;SDS011;6277;49.824;9.562;2023-11-18T01:15:13;46.08;;;4.50;;
12425;SDS011;6277;49.824;9.562;2023-11-18T01:17:39;45.45;;;4.18;;
12425;SDS011;6277;49.824;9.562;2023-11-18T01:20:05;45.78;;;4.53;;
12425;SDS011;6277;49.824;9.562;2023-11-18T01:22:36;19.58;;;2.55;;
12425;SDS011;6277;49.824;9.562;2023-11-18T01:25:03;26.17;;;3.60;;
12425;SDS011;6277;49.824;9.562;2023-11-18T01:27:29;84.57;;;4.65;;
12425;SDS011;6277;49.824;9.562;2023-11-18T01:29:55;140.02;;;6.47;;
12425;SDS011;6277;49.824;9.562;2023-11-18T01:32:21;27.08;;;2.75;;
12425;SDS011;6277;49.824;9.562;2023-11-18T01:34:46;18.38;;;2.25;;
12425;SDS011;6277;49.824;9.562;2023-11-18T01:37:18;34.13;;;3.05;;
12425;SDS011;6277;49.824;9.562;2023-11-18T01:39:46;11.85;;;2.15;;
12425;SDS011;6277;49.824;9.562;2023-11-18T01:42:11;93.05;;;5.63;;
12425;SDS011;6277;49.824;9.562;2023-11-18T01:44:37;76.55;;;4.57;;
12425;SDS011;6277;49.824;9.562;2023-11-18T01:47:02;69.53;;;3.90;;
12425;SDS011;6277;49.824;9.562;2023-11-18T01:49:35;58.17;;;3.78;;
12425;SDS011;6277;49.824;9.562;2023-11-18T01:52:05;80.05;;;4.57;;
12425;SDS011;6277;49.824;9.562;2023-11-18T01:54:32;7.72;;;1.70;;
12425;SDS011;6277;49.824;9.562;2023-11-18T01:56:59;72.20;;;5.30;;
12425;SDS011;6277;49.824;9.562;2023-11-18T01:59:27;15.60;;;2.70;;
12425;SDS011;6277;49.824;9.562;2023-11-18T02:01:55;36.03;;;2.85;;
12425;SDS011;6277;49.824;9.562;2023-11-18T02:04:24;57.90;;;3.53;;
12425;SDS011;6277;49.824;9.562;2023-11-18T02:06:50;52.50;;;3.65;;
12425;SDS011;6277;49.824;9.562;2023-11-18T02:09:17;21.45;;;2.53;;
12425;SDS011;6277;49.824;9.562;2023-11-18T02:11:54;3.08;;;1.70;;
12425;SDS011;6277;49.824;9.562;2023-11-18T02:14:29;39.55;;;2.90;;
12425;SDS011;6277;49.824;9.562;2023-11-18T02:16:59;21.20;;;3.05;;
12425;SDS011;6277;49.824;9.562;2023-11-18T02:19:26;11.80;;;2.35;;
12425;SDS011;6277;49.824;9.562;2023-11-18T02:21:52;16.05;;;2.42;;
12425;SDS011;6277;49.824;9.562;2023-11-18T02:24:28;2.40;;;1.88;;
12425;SDS011;6277;49.824;9.562;2023-11-18T02:26:59;6.55;;;2.15;;
12425;SDS011;6277;49.824;9.562;2023-11-18T02:29:26;1.52;;;1.25;;
12425;SDS011;6277;49.824;9.562;2023-11-18T02:32:02;8.35;;;1.70;;
12425;SDS011;6277;49.824;9.562;2023-11-18T02:34:51;8.30;;;2.30;;
12425;SDS011;6277;49.824;9.562;2023-11-18T02:37:30;8.07;;;2.30;;
12425;SDS011;6277;49.824;9.562;2023-11-18T02:40:00;11.32;;;1.90;;
12425;SDS011;6277;49.824;9.562;2023-11-18T02:42:33;26.20;;;2.28;;
12425;SDS011;6277;49.824;9.562;2023-11-18T02:45:01;24.17;;;2.38;;
12425;SDS011;6277;49.824;9.562;2023-11-18T02:47:27;19.42;;;2.08;;
12425;SDS011;6277;49.824;9.562;2023-11-18T02:49:53;4.05;;;1.60;;
12425;SDS011;6277;49.824;9.562;2023-11-18T02:52:21;10.38;;;1.98;;
12425;SDS011;6277;49.824;9.562;2023-11-18T02:54:47;21.95;;;2.10;;
12425;SDS011;6277;49.824;9.562;2023-11-18T02:57:13;4.90;;;1.35;;
12425;SDS011;6277;49.824;9.562;2023-11-18T02:59:38;14.45;;;1.77;;
12425;SDS011;6277;49.824;9.562;2023-11-18T03:02:04;15.13;;;1.80;;
12425;SDS011;6277;49.824;9.562;2023-11-18T03:04:31;13.43;;;1.70;;
12425;SDS011;6277;49.824;9.562;2023-11-18T03:06:56;12.30;;;1.52;;
12425;SDS011;6277;49.824;9.562;2023-11-18T03:09:22;14.60;;;2.05;;
12425;SDS011;6277;49.824;9.562;2023-11-18T03:11:52;15.43;;;1.70;;
12425;SDS011;6277;49.824;9.562;2023-11-18T03:14:18;32.45;;;2.22;;
12425;SDS011;6277;49.824;9.562;2023-11-18T03:16:44;6.75;;;1.30;;
12425;SDS011;6277;49.824;9.562;2023-11-18T03:19:09;27.38;;;2.00;;
12425;SDS011;6277;49.824;9.562;2023-11-18T03:21:35;10.02;;;1.48;;
12425;SDS011;6277;49.824;9.562;2023-11-18T03:24:01;18.38;;;1.92;;
12425;SDS011;6277;49.824;9.562;2023-11-18T03:26:27;40.25;;;3.28;;
12425;SDS011;6277;49.824;9.562;2023-11-18T03:28:53;33.97;;;2.30;;
12425;SDS011;6277;49.824;9.562;2023-11-18T03:31:18;28.38;;;2.03;;
12425;SDS011;6277;49.824;9.562;2023-11-18T03:33:44;18.63;;;2.08;;
12425;SDS011;6277;49.824;9.562;2023-11-18T03:36:10;8.57;;;1.15;;
12425;SDS011;6277;49.824;9.562;2023-11-18T03:38:37;18.15;;;1.73;;
12425;SDS011;6277;49.824;9.562;2023-11-18T03:41:02;32.50;;;2.42;;
12425;SDS011;6277;49.824;9.562;2023-11-18T03:43:28;13.50;;;1.55;;
12425;SDS011;6277;49.824;9.562;2023-11-18T03:45:54;9.50;;;1.30;;
12425;SDS011;6277;49.824;9.562;2023-11-18T03:48:21;12.57;;;1.70;;
12425;SDS011;6277;49.824;9.562;2023-11-18T03:50:47;9.10;;;1.48;;
12425;SDS011;6277;49.824;9.562;2023-11-18T03:53:13;15.43;;;1.60;;
12425;SDS011;6277;49.824;9.562;2023-11-18T03:55:38;5.60;;;1.27;;
12425;SDS011;6277;49.824;9.562;2023-11-18T03:58:04;10.48;;;1.60;;
12425;SDS011;6277;49.824;9.562;2023-11-18T04:00:29;4.20;;;1.48;;
12425;SDS011;6277;49.824;9.562;2023-11-18T04:02:56;8.43;;;1.60;;
12425;SDS011;6277;49.824;9.562;2023-11-18T04:05:22;8.00;;;1.80;;
12425;SDS011;6277;49.824;9.562;2023-11-18T04:07:47;4.95;;;2.05;;
12425;SDS011;6277;49.824;9.562;2023-11-18T04:10:13;31.13;;;2.70;;
12425;SDS011;6277;49.824;9.562;2023-11-18T04:12:40;12.48;;;3.00;;
12425;SDS011;6277;49.824;9.562;2023-11-18T04:15:06;7.75;;;3.28;;
12425;SDS011;6277;49.824;9.562;2023-11-18T04:17:32;18.00;;;4.47;;
12425;SDS011;6277;49.824;9.562;2023-11-18T04:19:58;11.57;;;3.13;;
12425;SDS011;6277;49.824;9.562;2023-11-18T04:22:23;7.47;;;3.17;;
12425;SDS011;6277;49.824;9.562;2023-11-18T04:24:49;18.45;;;3.30;;
12425;SDS011;6277;49.824;9.562;2023-11-18T04:27:15;18.92;;;3.75;;
12425;SDS011;6277;49.824;9.562;2023-11-18T04:29:41;18.77;;;3.28;;
12425;SDS011;6277;49.824;9.562;2023-11-18T04:32:07;26.95;;;3.05;;
12425;SDS011;6277;49.824;9.562;2023-11-18T04:34:35;20.75;;;2.85;;
12425;SDS011;6277;49.824;9.562;2023-11-18T04:37:02;15.48;;;2.22;;
12425;SDS011;6277;49.824;9.562;2023-11-18T04:39:28;5.80;;;2.20;;
12425;SDS011;6277;49.824;9.562;2023-11-18T04:41:55;30.85;;;3.60;;
12425;SDS011;6277;49.824;9.562;2023-11-18T04:44:21;15.48;;;2.53;;
12425;SDS011;6277;49.824;9.562;2023-11-18T04:46:47;6.88;;;2.05;;
12425;SDS011;6277;49.824;9.562;2023-11-18T04:49:12;31.58;;;3.25;;
12425;SDS011;6277;49.824;9.562;2023-11-18T04:51:38;27.25;;;3.60;;
12425;SDS011;6277;49.824;9.562;2023-11-18T04:54:03;29.30;;;3.47;;
12425;SDS011;6277;49.824;9.562;2023-11-18T04:56:29;14.57;;;2.75;;
12425;SDS011;6277;49.824;9.562;2023-11-18T04:58:55;29.25;;;3.72;;
12425;SDS011;6277;49.824;9.562;2023-11-18T05:01:20;60.05;;;5.07;;
12425;SDS011;6277;49.824;9.562;2023-11-18T05:03:46;50.28;;;4.50;;
12425;SDS011;6277;49.824;9.562;2023-11-18T05:06:12;46.17;;;4.43;;
12425;SDS011;6277;49.824;9.562;2023-11-18T05:08:38;51.83;;;4.20;;
12425;SDS011;6277;49.824;9.562;2023-11-18T05:11:03;29.85;;;4.43;;
12425;SDS011;6277;49.824;9.562;2023-11-18T05:13:32;33.10;;;4.05;;
12425;SDS011;6277;49.824;9.562;2023-11-18T05:15:58;24.33;;;3.80;;
12425;SDS011;6277;49.824;9.562;2023-11-18T05:18:24;27.05;;;3.28;;
12425;SDS011;6277;49.824;9.562;2023-11-18T05:20:54;20.02;;;3.30;;
12425;SDS011;6277;49.824;9.562;2023-11-18T05:23:20;41.00;;;3.95;;
12425;SDS011;6277;49.824;9.562;2023-11-18T05:25:45;20.10;;;3.22;;
12425;SDS011;6277;49.824;9.562;2023-11-18T05:28:11;17.70;;;3.13;;
12425;SDS011;6277;49.824;9.562;2023-11-18T05:30:37;21.92;;;3.00;;
12425;SDS011;6277;49.824;9.562;2023-11-18T05:33:08;26.58;;;3.47;;
12425;SDS011;6277;49.824;9.562;2023-11-18T05:35:35;22.63;;;3.40;;
12425;SDS011;6277;49.824;9.562;2023-11-18T05:38:01;11.10;;;3.13;;
12425;SDS011;6277;49.824;9.562;2023-11-18T05:40:31;31.85;;;4.00;;
12425;SDS011;6277;49.824;9.562;2023-11-18T05:42:56;21.30;;;3.28;;
12425;SDS011;6277;49.824;9.562;2023-11-18T05:45:23;47.70;;;4.38;;
12425;SDS011;6277;49.824;9.562;2023-11-18T05:48:09;10.85;;;2.28;;
12425;SDS011;6277;49.824;9.562;2023-11-18T05:50:34;60.97;;;4.70;;
12425;SDS011;6277;49.824;9.562;2023-11-18T05:53:00;55.83;;;4.65;;
12425;SDS011;6277;49.824;9.562;2023-11-18T05:55:25;14.95;;;3.03;;
12425;SDS011;6277;49.824;9.562;2023-11-18T05:57:51;27.13;;;3.42;;
12425;SDS011;6277;49.824;9.562;2023-11-18T06:00:16;23.55;;;3.25;;
12425;SDS011;6277;49.824;9.562;2023-11-18T06:02:44;8.93;;;2.60;;
12425;SDS011;6277;49.824;9.562;2023-11-18T06:05:10;26.98;;;3.10;;
12425;SDS011;6277;49.824;9.562;2023-11-18T06:07:37;16.27;;;2.20;;
12425;SDS011;6277;49.824;9.562;2023-11-18T06:10:05;51.72;;;4.40;;
12425;SDS011;6277;49.824;9.562;2023-11-18T06:12:31;36.30;;;3.92;;
12425;SDS011;6277;49.824;9.562;2023-11-18T06:14:58;39.25;;;4.55;;
12425;SDS011;6277;49.824;9.562;2023-11-18T06:17:24;45.00;;;3.67;;
12425;SDS011;6277;49.824;9.562;2023-11-18T06:19:49;19.48;;;2.70;;
12425;SDS011;6277;49.824;9.562;2023-11-18T06:22:15;30.30;;;3.40;;
12425;SDS011;6277;49.824;9.562;2023-11-18T06:24:41;28.23;;;3.38;;
12425;SDS011;6277;49.824;9.562;2023-11-18T06:27:08;32.50;;;3.75;;
12425;SDS011;6277;49.824;9.562;2023-11-18T06:29:34;28.48;;;3.70;;
12425;SDS011;6277;49.824;9.562;2023-11-18T06:31:59;56.28;;;4.22;;
12425;SDS011;6277;49.824;9.562;2023-11-18T06:34:25;52.25;;;4.13;;
12425;SDS011;6277;49.824;9.562;2023-11-18T06:36:52;25.52;;;3.00;;
12425;SDS011;6277;49.824;9.562;2023-11-18T06:39:18;56.42;;;4.30;;
12425;SDS011;6277;49.824;9.562;2023-11-18T06:41:44;54.38;;;3.90;;
12425;SDS011;6277;49.824;9.562;2023-11-18T06:44:15;14.13;;;1.95;;
12425;SDS011;6277;49.824;9.562;2023-11-18T06:46:43;23.35;;;2.78;;
12425;SDS011;6277;49.824;9.562;2023-11-18T06:49:09;38.40;;;3.50;;
12425;SDS011;6277;49.824;9.562;2023-11-18T06:51:40;31.92;;;3.67;;
12425;SDS011;6277;49.824;9.562;2023-11-18T06:54:06;32.60;;;3.45;;
12425;SDS011;6277;49.824;9.562;2023-11-18T06:56:41;23.73;;;3.03;;
12425;SDS011;6277;49.824;9.562;2023-11-18T06:59:07;27.25;;;3.47;;
12425;SDS011;6277;49.824;9.562;2023-11-18T07:01:37;62.20;;;5.30;;
12425;SDS011;6277;49.824;9.562;2023-11-18T07:04:05;62.90;;;4.57;;
12425;SDS011;6277;49.824;9.562;2023-11-18T07:06:33;37.58;;;3.90;;
12425;SDS011;6277;49.824;9.562;2023-11-18T07:09:03;39.90;;;3.30;;
12425;SDS011;6277;49.824;9.562;2023-11-18T07:11:33;31.75;;;3.90;;
12425;SDS011;6277;49.824;9.562;2023-11-18T07:14:00;57.17;;;4.85;;
12425;SDS011;6277;49.824;9.562;2023-11-18T07:16:25;22.13;;;3.35;;
12425;SDS011;6277;49.824;9.562;2023-11-18T07:18:51;82.65;;;5.53;;
12425;SDS011;6277;49.824;9.562;2023-11-18T07:21:17;78.80;;;5.60;;
12425;SDS011;6277;49.824;9.562;2023-11-18T07:23:43;70.13;;;4.68;;
12425;SDS011;6277;49.824;9.562;2023-11-18T07:26:09;62.10;;;4.55;;
12425;SDS011;6277;49.824;9.562;2023-11-18T07:28:35;39.20;;;3.63;;
12425;SDS011;6277;49.824;9.562;2023-11-18T07:31:01;35.70;;;3.65;;
12425;SDS011;6277;49.824;9.562;2023-11-18T07:33:29;67.53;;;4.45;;
12425;SDS011;6277;49.824;9.562;2023-11-18T07:35:56;26.08;;;3.22;;
12425;SDS011;6277;49.824;9.562;2023-11-18T07:38:21;32.03;;;3.28;;
12425;SDS011;6277;49.824;9.562;2023-11-18T07:40:48;27.83;;;3.50;;
12425;SDS011;6277;49.824;9.562;2023-11-18T07:43:14;37.60;;;3.00;;
12425;SDS011;6277;49.824;9.562;2023-11-18T07:45:40;23.60;;;3.10;;
12425;SDS011;6277;49.824;9.562;2023-11-18T07:48:07;11.20;;;2.42;;
12425;SDS011;6277;49.824;9.562;2023-11-18T07:50:34;9.98;;;3.13;;
12425;SDS011;6277;49.824;9.562;2023-11-18T07:53:07;25.38;;;3.92;;
12425;SDS011;6277;49.824;9.562;2023-11-18T07:55:33;30.50;;;4.13;;
12425;SDS011;6277;49.824;9.562;2023-11-18T07:58:02;21.13;;;4.15;;
12425;SDS011;6277;49.824;9.562;2023-11-18T08:00:29;12.75;;;3.63;;
12425;SDS011;6277;49.824;9.562;2023-11-18T08:02:58;22.15;;;3.90;;
12425;SDS011;6277;49.824;9.562;2023-11-18T08:05:25;13.63;;;3.92;;
12425;SDS011;6277;49.824;9.562;2023-11-18T08:07:51;15.73;;;4.68;;
12425;SDS011;6277;49.824;9.562;2023-11-18T08:10:18;14.48;;;4.43;;
12425;SDS011;6277;49.824;9.562;2023-11-18T08:12:44;15.20;;;5.25;;
12425;SDS011;6277;49.824;9.562;2023-11-18T08:15:10;24.25;;;5.10;;
12425;SDS011;6277;49.824;9.562;2023-11-18T08:17:36;36.42;;;4.85;;
12425;SDS011;6277;49.824;9.562;2023-11-18T08:20:02;39.63;;;3.83;;
12425;SDS011;6277;49.824;9.562;2023-11-18T08:22:38;46.25;;;5.28;;
12425;SDS011;6277;49.824;9.562;2023-11-18T08:25:09;44.00;;;4.47;;
12425;SDS011;6277;49.824;9.562;2023-11-18T08:27:41;12.35;;;3.80;;
12425;SDS011;6277;49.824;9.562;2023-11-18T08:30:07;35.00;;;3.72;;
12425;SDS011;6277;49.824;9.562;2023-11-18T08:32:39;43.50;;;4.93;;
12425;SDS011;6277;49.824;9.562;2023-11-18T08:35:09;30.33;;;4.17;;
12425;SDS011;6277;49.824;9.562;2023-11-18T08:37:36;20.38;;;3.83;;
12425;SDS011;6277;49.824;9.562;2023-11-18T08:40:05;15.70;;;4.47;;
12425;SDS011;6277;49.824;9.562;2023-11-18T08:42:31;16.13;;;3.97;;
12425;SDS011;6277;49.824;9.562;2023-11-18T08:44:59;27.95;;;3.53;;
12425;SDS011;6277;49.824;9.562;2023-11-18T08:47:25;14.48;;;3.90;;
12425;SDS011;6277;49.824;9.562;2023-11-18T08:49:51;31.08;;;5.15;;
12425;SDS011;6277;49.824;9.562;2023-11-18T08:52:17;10.05;;;4.57;;
12425;SDS011;6277;49.824;9.562;2023-11-18T08:54:43;22.98;;;4.90;;
12425;SDS011;6277;49.824;9.562;2023-11-18T08:57:27;16.88;;;4.05;;
12425;SDS011;6277;49.824;9.562;2023-11-18T08:59:59;53.03;;;5.80;;
12425;SDS011;6277;49.824;9.562;2023-11-18T09:02:24;26.65;;;5.00;;
12425;SDS011;6277;49.824;9.562;2023-11-18T09:04:50;15.93;;;4.22;;
12425;SDS011;6277;49.824;9.562;2023-11-18T09:07:17;23.33;;;3.97;;
12425;SDS011;6277;49.824;9.562;2023-11-18T09:09:44;53.88;;;5.40;;
12425;SDS011;6277;49.824;9.562;2023-11-18T09:12:11;32.10;;;4.40;;
12425;SDS011;6277;49.824;9.562;2023-11-18T09:14:39;31.55;;;5.18;;
12425;SDS011;6277;49.824;9.562;2023-11-18T09:17:07;51.50;;;5.07;;
12425;SDS011;6277;49.824;9.562;2023-11-18T09:19:33;53.53;;;5.70;;
12425;SDS011;6277;49.824;9.562;2023-11-18T09:21:58;43.53;;;5.03;;
12425;SDS011;6277;49.824;9.562;2023-11-18T09:24:24;23.17;;;4.85;;
12425;SDS011;6277;49.824;9.562;2023-11-18T09:26:50;6.97;;;4.30;;
12425;SDS011;6277;49.824;9.562;2023-11-18T09:29:16;11.38;;;4.63;;
12425;SDS011;6277;49.824;9.562;2023-11-18T09:31:46;10.20;;;5.30;;
12425;SDS011;6277;49.824;9.562;2023-11-18T09:34:15;37.72;;;6.15;;
12425;SDS011;6277;49.824;9.562;2023-11-18T09:36:42;10.32;;;5.45;;
12425;SDS011;6277;49.824;9.562;2023-11-18T09:39:08;25.50;;;5.60;;
12425;SDS011;6277;49.824;9.562;2023-11-18T09:41:40;16.17;;;6.10;;
12425;SDS011;6277;49.824;9.562;2023-11-18T09:44:06;14.88;;;6.15;;
12425;SDS011;6277;49.824;9.562;2023-11-18T09:46:33;10.73;;;5.53;;
12425;SDS011;6277;49.824;9.562;2023-11-18T09:49:12;9.00;;;6.00;;
12425;SDS011;6277;49.824;9.562;2023-11-18T09:51:50;14.70;;;5.65;;
12425;SDS011;6277;49.824;9.562;2023-11-18T09:54:27;12.38;;;5.53;;
12425;SDS011;6277;49.824;9.562;2023-11-18T10:00:23;9.40;;;6.25;;
12425;SDS011;6277;49.824;9.562;2023-11-18T10:02:44;10.85;;;5.90;;
12425;SDS011;6277;49.824;9.562;2023-11-18T10:05:11;8.68;;;5.65;;
12425;SDS011;6277;49.824;9.562;2023-11-18T10:07:41;9.63;;;5.45;;
12425;SDS011;6277;49.824;9.562;2023-11-18T10:10:07;12.27;;;6.30;;
12425;SDS011;6277;49.824;9.562;2023-11-18T10:12:43;11.27;;;5.43;;
12425;SDS011;6277;49.824;9.562;2023-11-18T10:15:21;15.65;;;5.50;;
12425;SDS011;6277;49.824;9.562;2023-11-18T10:17:52;13.38;;;5.43;;
12425;SDS011;6277;49.824;9.562;2023-11-18T10:23:10;16.45;;;5.43;;
12425;SDS011;6277;49.824;9.562;2023-11-18T10:25:45;10.15;;;5.38;;
12425;SDS011;6277;49.824;9.562;2023-11-18T10:28:23;8.27;;;5.57;;
12425;SDS011;6277;49.824;9.562;2023-11-18T10:30:58;9.13;;;5.63;;
12425;SDS011;6277;49.824;9.562;2023-11-18T10:33:37;12.18;;;5.38;;
12425;SDS011;6277;49.824;9.562;2023-11-18T10:36:06;13.98;;;5.68;;
12425;SDS011;6277;49.824;9.562;2023-11-18T10:38:47;8.23;;;5.25;;
12425;SDS011;6277;49.824;9.562;2023-11-18T10:41:14;10.05;;;5.90;;
12425;SDS011;6277;49.824;9.562;2023-11-18T10:43:44;8.95;;;6.28;;
12425;SDS011;6277;49.824;9.562;2023-11-18T10:46:13;10.80;;;6.10;;
12425;SDS011;6277;49.824;9.562;2023-11-18T10:51:18;9.95;;;6.35;;
12425;SDS011;6277;49.824;9.562;2023-11-18T10:53:49;9.57;;;6.75;;
12425;SDS011;6277;49.824;9.562;2023-11-18T10:58:49;9.70;;;6.85;;
12425;SDS011;6277;49.824;9.562;2023-11-18T11:01:15;11.38;;;7.70;;
12425;SDS011;6277;49.824;9.562;2023-11-18T11:03:52;13.00;;;7.45;;
12425;SDS011;6277;49.824;9.562;2023-11-18T11:06:20;11.60;;;7.65;;
12425;SDS011;6277;49.824;9.562;2023-11-18T11:08:48;12.65;;;7.65;;
12425;SDS011;6277;49.824;9.562;2023-11-18T11:11:21;11.10;;;7.35;;
12425;SDS011;6277;49.824;9.562;2023-11-18T11:13:57;10.60;;;7.13;;
12425;SDS011;6277;49.824;9.562;2023-11-18T11:16:33;10.05;;;7.13;;
12425;SDS011;6277;49.824;9.562;2023-11-18T11:19:04;10.63;;;7.72;;
12425;SDS011;6277;49.824;9.562;2023-11-18T11:21:33;9.90;;;6.95;;
12425;SDS011;6277;49.824;9.562;2023-11-18T11:24:14;9.18;;;6.63;;
12425;SDS011;6277;49.824;9.562;2023-11-18T11:27:16;8.73;;;6.53;;
12425;SDS011;6277;49.824;9.562;2023-11-18T11:30:01;9.20;;;6.47;;
12425;SDS011;6277;49.824;9.562;2023-11-18T11:32:35;9.55;;;6.82;;
12425;SDS011;6277;49.824;9.562;2023-11-18T11:35:13;10.10;;;7.40;;
12425;SDS011;6277;49.824;9.562;2023-11-18T11:37:45;10.90;;;8.18;;
12425;SDS011;6277;49.824;9.562;2023-11-18T11:40:12;12.10;;;8.98;;
12425;SDS011;6277;49.824;9.562;2023-11-18T11:42:46;11.85;;;8.90;;
12425;SDS011;6277;49.824;9.562;2023-11-18T11:45:20;11.65;;;8.30;;
12425;SDS011;6277;49.824;9.562;2023-11-18T11:47:50;10.90;;;8.10;;
12425;SDS011;6277;49.824;9.562;2023-11-18T11:50:21;11.48;;;8.40;;
12425;SDS011;6277;49.824;9.562;2023-11-18T11:53:02;10.05;;;7.75;;
12425;SDS011;6277;49.824;9.562;2023-11-18T11:58:26;10.65;;;7.78;;
12425;SDS011;6277;49.824;9.562;2023-11-18T12:00:54;10.05;;;7.47;;
12425;SDS011;6277;49.824;9.562;2023-11-18T12:03:21;10.65;;;7.72;;
12425;SDS011;6277;49.824;9.562;2023-11-18T12:05:48;10.45;;;7.22;;
12425;SDS011;6277;49.824;9.562;2023-11-18T12:08:16;10.73;;;7.55;;
12425;SDS011;6277;49.824;9.562;2023-11-18T12:10:50;12.35;;;8.40;;
12425;SDS011;6277;49.824;9.562;2023-11-18T12:13:21;12.13;;;8.20;;
12425;SDS011;6277;49.824;9.562;2023-11-18T12:15:50;13.25;;;8.18;;
12425;SDS011;6277;49.824;9.562;2023-11-18T12:18:28;11.60;;;7.43;;
12425;SDS011;6277;49.824;9.562;2023-11-18T12:20:56;12.75;;;8.00;;
12425;SDS011;6277;49.824;9.562;2023-11-18T12:23:26;12.80;;;8.55;;
12425;SDS011;6277;49.824;9.562;2023-11-18T12:25:53;10.98;;;7.70;;
12425;SDS011;6277;49.824;9.562;2023-11-18T12:28:32;11.43;;;7.80;;
12425;SDS011;6277;49.824;9.562;2023-11-18T12:31:03;11.48;;;7.88;;
12425;SDS011;6277;49.824;9.562;2023-11-18T12:42:04;17.27;;;14.55;;
12425;SDS011;6277;49.824;9.562;2023-11-18T12:47:39;12.75;;;9.63;;
12425;SDS011;6277;49.824;9.562;2023-11-18T12:50:09;12.00;;;9.23;;
12425;SDS011;6277;49.824;9.562;2023-11-18T12:52:49;11.38;;;8.20;;
12425;SDS011;6277;49.824;9.562;2023-11-18T12:55:18;11.35;;;8.05;;
12425;SDS011;6277;49.824;9.562;2023-11-18T12:57:48;12.20;;;8.23;;
12425;SDS011;6277;49.824;9.562;2023-11-18T13:00:16;9.02;;;6.88;;
12425;SDS011;6277;49.824;9.562;2023-11-18T13:02:52;10.30;;;7.13;;
12425;SDS011;6277;49.824;9.562;2023-11-18T13:05:19;9.43;;;7.00;;
12425;SDS011;6277;49.824;9.562;2023-11-18T13:07:44;10.02;;;7.13;;
12425;SDS011;6277;49.824;9.562;2023-11-18T13:10:12;10.05;;;7.63;;
12425;SDS011;6277;49.824;9.562;2023-11-18T13:12:40;11.43;;;8.25;;
12425;SDS011;6277;49.824;9.562;2023-11-18T13:15:08;12.13;;;8.60;;
12425;SDS011;6277;49.824;9.562;2023-11-18T13:17:34;11.35;;;8.07;;
12425;SDS011;6277;49.824;9.562;2023-11-18T13:20:11;11.50;;;8.23;;
12425;SDS011;6277;49.824;9.562;2023-11-18T13:22:41;11.73;;;8.85;;
12425;SDS011;6277;49.824;9.562;2023-11-18T13:25:07;15.90;;;12.05;;
12425;SDS011;6277;49.824;9.562;2023-11-18T13:27:34;17.38;;;13.80;;
12425;SDS011;6277;49.824;9.562;2023-11-18T13:30:00;14.18;;;10.65;;
12425;SDS011;6277;49.824;9.562;2023-11-18T13:32:28;13.95;;;10.38;;
12425;SDS011;6277;49.824;9.562;2023-11-18T13:34:54;12.45;;;9.40;;
12425;SDS011;6277;49.824;9.562;2023-11-18T13:37:20;10.27;;;7.90;;
12425;SDS011;6277;49.824;9.562;2023-11-18T13:39:56;11.45;;;7.85;;
12425;SDS011;6277;49.824;9.562;2023-11-18T13:42:24;9.35;;;7.13;;
12425;SDS011;6277;49.824;9.562;2023-11-18T13:44:53;12.70;;;7.85;;
12425;SDS011;6277;49.824;9.562;2023-11-18T13:47:25;10.40;;;7.32;;
12425;SDS011;6277;49.824;9.562;2023-11-18T13:49:53;11.90;;;8.80;;
12425;SDS011;6277;49.824;9.562;2023-11-18T13:52:19;11.27;;;9.05;;
12425;SDS011;6277;49.824;9.562;2023-11-18T13:54:46;12.00;;;8.65;;
12425;SDS011;6277;49.824;9.562;2023-11-18T13:57:12;12.63;;;9.30;;
12425;SDS011;6277;49.824;9.562;2023-11-18T13:59:38;11.85;;;8.50;;
12425;SDS011;6277;49.824;9.562;2023-11-18T14:02:04;11.82;;;8.35;;
12425;SDS011;6277;49.824;9.562;2023-11-18T14:04:30;13.52;;;8.20;;
12425;SDS011;6277;49.824;9.562;2023-11-18T14:06:59;11.00;;;8.02;;
12425;SDS011;6277;49.824;9.562;2023-11-18T14:09:33;10.85;;;7.55;;
12425;SDS011;6277;49.824;9.562;2023-11-18T14:12:05;12.18;;;7.90;;
12425;SDS011;6277;49.824;9.562;2023-11-18T14:14:32;12.68;;;8.98;;
12425;SDS011;6277;49.824;9.562;2023-11-18T14:16:57;13.38;;;8.57;;
12425;SDS011;6277;49.824;9.562;2023-11-18T14:19:27;11.85;;;9.10;;
12425;SDS011;6277;49.824;9.562;2023-11-18T14:21:53;11.63;;;7.72;;
12425;SDS011;6277;49.824;9.562;2023-11-18T14:24:19;11.73;;;8.15;;
12425;SDS011;6277;49.824;9.562;2023-11-18T14:26:45;11.77;;;7.68;;
12425;SDS011;6277;49.824;9.562;2023-11-18T14:29:10;11.70;;;7.43;;
12425;SDS011;6277;49.824;9.562;2023-11-18T14:31:39;11.73;;;7.80;;
12425;SDS011;6277;49.824;9.562;2023-11-18T14:34:05;10.30;;;7.68;;
12425;SDS011;6277;49.824;9.562;2023-11-18T14:36:30;10.55;;;7.63;;
12425;SDS011;6277;49.824;9.562;2023-11-18T14:38:56;9.95;;;7.53;;
12425;SDS011;6277;49.824;9.562;2023-11-18T14:41:24;10.73;;;7.68;;
12425;SDS011;6277;49.824;9.562;2023-11-18T14:43:54;8.50;;;6.68;;
12425;SDS011;6277;49.824;9.562;2023-11-18T14:46:20;11.45;;;7.45;;
12425;SDS011;6277;49.824;9.562;2023-11-18T14:48:46;10.63;;;7.25;;
12425;SDS011;6277;49.824;9.562;2023-11-18T14:51:11;9.40;;;6.95;;
12425;SDS011;6277;49.824;9.562;2023-11-18T14:53:37;8.93;;;6.68;;
12425;SDS011;6277;49.824;9.562;2023-11-18T14:56:03;9.57;;;7.30;;
12425;SDS011;6277;49.824;9.562;2023-11-18T14:58:31;9.32;;;6.85;;
12425;SDS011;6277;49.824;9.562;2023-11-18T15:01:00;12.90;;;8.88;;
12425;SDS011;6277;49.824;9.562;2023-11-18T15:03:27;10.80;;;8.30;;
12425;SDS011;6277;49.824;9.562;2023-11-18T15:05:52;12.63;;;8.55;;
12425;SDS011;6277;49.824;9.562;2023-11-18T15:08:18;12.35;;;8.75;;
12425;SDS011;6277;49.824;9.562;2023-11-18T15:10:44;9.13;;;7.28;;
12425;SDS011;6277;49.824;9.562;2023-11-18T15:13:10;12.32;;;8.52;;
12425;SDS011;6277;49.824;9.562;2023-11-18T15:15:42;12.85;;;9.48;;
12425;SDS011;6277;49.824;9.562;2023-11-18T15:18:12;12.25;;;9.20;;
12425;SDS011;6277;49.824;9.562;2023-11-18T15:20:48;12.52;;;8.27;;
12425;SDS011;6277;49.824;9.562;2023-11-18T15:23:14;11.52;;;8.70;;